Nearby METAR Reports

 

KSFZ - Pawtucket, Rhode Island, USA
Distance from station: S 7mi, 11km
Updated: Wed, 03-Jun-2020 2:56pm EDT
Partly cloudy
Partly cloudy
 Wind from W
Wind: W 12 mph , 19 km/h, Gust: 18 mph , 30 km/h
Temperature: 75°F , 24°C
Dew Point: 63°F , 17°C
Humidity: 65%
Barometer: 29.57 inHg , 1001.4 hPa
Clouds: Partly cloudy
Visibility: 10 miles , 16 km
Cloud details: Partly cloudy 3700 ft
2020/06/03 18:56 KSFZ 031856Z AUTO 26010G16KT 10SM SCT037 24/17 A2957 RMK AO2 SLP957 T02390167
KPVD - Providence/Green, Rhode Island, USA
Distance from station: SSE 21mi, 34km
Updated: Wed, 03-Jun-2020 2:51pm EDT
Overcast
Overcast
 Wind from W
Wind: W 8 mph , 13 km/h
Temperature: 75°F , 24°C
Dew Point: 63°F , 17°C
Humidity: 65%
Barometer: 29.55 inHg , 1000.7 hPa
Clouds: Overcast
Visibility: 10 miles , 16 km
Cloud details: Few Clouds 2500 ft
Few Clouds 4500 ft
Few Clouds 11000 ft
Overcast 16000 ft
2020/06/03 18:51 KPVD 031851Z 27007KT 10SM FEW025 FEW045 FEW110 OVC160 24/17 A2955 RMK AO2 SLP007 T02440172
 
KORH - Worcester, Massachusetts, USA
Distance from station: NW 25mi, 40km
Updated: Wed, 03-Jun-2020 2:54pm EDT
Mostly cloudy
Mostly cloudy
 Wind from WSW
Wind: WSW 16 mph , 26 km/h, Gust: 22 mph , 35 km/h
Temperature: 72°F , 22°C
Dew Point: 59°F , 15°C
Humidity: 65%
Barometer: 29.58 inHg , 1001.7 hPa
Clouds: Mostly cloudy
Visibility: 10 miles , 16 km
Cloud details: Mostly cloudy 9500 ft
2020/06/03 18:54 KORH 031854Z 24014G19KT 10SM BKN095 22/15 A2958 RMK AO2 RAB03E48 SLP014 P0000 T02220150
KTAN - Taunton, Massachusetts, USA
Distance from station: ESE 28mi, 44km
Updated: Wed, 03-Jun-2020 2:52pm EDT
Clear
Clear
 Wind from SW
Wind: SW 8 mph , 13 km/h
Temperature: 75°F , 24°C
Dew Point: 61°F , 16°C
Humidity: 61%
Barometer: 29.55 inHg , 1000.7 hPa
Clouds: Clear
Visibility: 10 miles , 16 km
2020/06/03 18:52 KTAN 031852Z AUTO 22007KT 10SM CLR 24/16 A2955 RMK AO2 SLP004 T02440161
 
KOQU - N. Kingston/Quon, Rhode Island, USA
Distance from station: S 29mi, 47km
Updated: Wed, 03-Jun-2020 2:50pm EDT
Overcast
Overcast
 Wind from SW
Wind: SW 15 mph , 24 km/h
Temperature: 72°F , 22°C
Dew Point: 61°F , 16°C
Humidity: 69%
Barometer: 29.56 inHg , 1001 hPa
Clouds: Overcast
Visibility: 10 miles , 16 km
Cloud details: Mostly cloudy 15000 ft
Overcast 25000 ft
2020/06/03 18:50 KOQU 031850Z 23013KT 10SM BKN150 OVC250 22/16 A2956
KBOS - Boston, Massachusetts, USA
Distance from station: NE 35mi, 57km
Updated: Wed, 03-Jun-2020 2:54pm EDT
Overcast
Overcast
 Wind from ESE
Wind: ESE 14 mph , 22 km/h
Temperature: 70°F , 21°C
Dew Point: 57°F , 14°C
Humidity: 64%
Barometer: 29.53 inHg , 1000 hPa
Clouds: Overcast
Visibility: 10 miles , 16 km
Cloud details: Partly cloudy 5000 ft
Mostly cloudy 13000 ft
Overcast 25000 ft
2020/06/03 18:54 KBOS 031854Z 12012KT 10SM SCT050 BKN130 OVC250 21/14 A2953 RMK AO2 SLP999 T02060139
 
KUUU - Newport, Rhode Island, USA
Distance from station: SSE 36mi, 57km
Updated: Wed, 03-Jun-2020 2:53pm EDT
Light rain, Mostly cloudy
Light rain, Mostly cloudy
 Wind from varies
Wind: varies 5 mph , 7 km/h
Temperature: 66°F , 19°C
Dew Point: 59°F , 15°C
Humidity: 78%
Barometer: 29.57 inHg , 1001.4 hPa
Summary: Light rain
Clouds: Mostly cloudy
Visibility: 10 miles , 16 km
Cloud details: Mostly cloudy 10000 ft
Mostly cloudy 12000 ft
2020/06/03 18:53 KUUU 031853Z AUTO VRB04KT 10SM -RA BKN100 BKN120 19/15 A2957 RMK AO2 RAB52 SLP012 P0000 T01940150
KPYM - Plymouth, Massachusetts, USA
Distance from station: E 41mi, 66km
Updated: Wed, 03-Jun-2020 2:52pm EDT
Clear
Clear
 Wind from S
Wind: S 8 mph , 13 km/h
Temperature: 73°F , 23°C
Dew Point: 63°F , 17°C
Humidity: 69%
Barometer: 29.54 inHg , 1000.3 hPa
Clouds: Clear
Visibility: 10 miles , 16 km
2020/06/03 18:52 KPYM 031852Z AUTO 18007KT 10SM CLR 23/17 A2954 RMK AO2 SLP004 T02330167
 
KWST - Westerly, Rhode Island, USA
Distance from station: SSW 48mi, 78km
Updated: Wed, 03-Jun-2020 2:53pm EDT
Few Clouds
Few Clouds
 Wind from SW
Wind: SW 8 mph , 13 km/h
Temperature: 73°F , 23°C
Dew Point: 59°F , 15°C
Humidity: 61%
Barometer: 29.59 inHg , 1002 hPa
Clouds: Few Clouds
Visibility: 10 miles , 16 km
Cloud details: Few Clouds 12000 ft
2020/06/03 18:53 KWST 031853Z AUTO 23007KT 10SM FEW120 23/15 A2959 RMK AO2 SLP019 T02280150